createdAt,value
2023-07-17T00:00:57.000Z,6.060850439882717
2023-07-17T00:01:59.000Z,6.158113391984379
2023-07-17T00:03:01.000Z,6.1192082111437145
2023-07-17T00:04:04.000Z,6.167839687194546
2023-07-17T00:05:06.000Z,6.109481915933548
2023-07-17T00:06:08.000Z,6.148387096774213
2023-07-17T00:07:11.000Z,6.187292277614878
2023-07-17T00:08:13.000Z,6.187292277614878
2023-07-17T00:09:15.000Z,6.177565982404712
2023-07-17T00:10:18.000Z,6.177565982404712
2023-07-17T00:11:20.000Z,6.187292277614878
2023-07-17T00:12:22.000Z,6.187292277614878
2023-07-17T00:13:25.000Z,6.20674486803521
2023-07-17T00:14:27.000Z,6.216471163245377
2023-07-17T00:15:29.000Z,6.197018572825044
2023-07-17T00:16:32.000Z,6.197018572825044
2023-07-17T00:17:34.000Z,6.128934506353881
2023-07-17T00:18:36.000Z,6.031671554252219
2023-07-17T00:19:39.000Z,6.099755620723382
2023-07-17T00:20:41.000Z,6.148387096774213
2023-07-17T00:21:43.000Z,6.138660801564047
2023-07-17T00:22:46.000Z,6.138660801564047
2023-07-17T00:23:48.000Z,6.128934506353881
2023-07-17T00:24:50.000Z,6.158113391984379
2023-07-17T00:25:53.000Z,6.128934506353881
2023-07-17T00:26:55.000Z,6.128934506353881
2023-07-17T00:27:57.000Z,6.128934506353881
2023-07-17T00:28:59.000Z,6.060850439882717
2023-07-17T00:30:02.000Z,6.060850439882717
2023-07-17T00:31:04.000Z,6.099755620723382
2023-07-17T00:32:07.000Z,6.158113391984379
2023-07-17T00:33:09.000Z,6.158113391984379
2023-07-17T00:34:11.000Z,6.177565982404712
2023-07-17T00:35:13.000Z,6.177565982404712
2023-07-17T00:36:16.000Z,6.090029325513216
2023-07-17T00:37:18.000Z,6.197018572825044
2023-07-17T00:38:20.000Z,6.167839687194546
2023-07-17T00:39:23.000Z,6.158113391984379
2023-07-17T00:40:25.000Z,6.158113391984379
2023-07-17T00:41:27.000Z,6.090029325513216
2023-07-17T00:42:30.000Z,6.099755620723382
2023-07-17T00:43:32.000Z,6.099755620723382
2023-07-17T00:44:34.000Z,6.148387096774213
2023-07-17T00:45:36.000Z,6.109481915933548
2023-07-17T00:46:39.000Z,6.128934506353881
2023-07-17T00:47:41.000Z,6.109481915933548
2023-07-17T00:48:43.000Z,6.128934506353881
2023-07-17T00:49:46.000Z,6.128934506353881
2023-07-17T00:50:48.000Z,6.109481915933548
2023-07-17T00:51:50.000Z,6.109481915933548
2023-07-17T00:52:53.000Z,6.109481915933548
2023-07-17T00:53:55.000Z,6.012218963831886
2023-07-17T00:54:57.000Z,6.021945259042052
2023-07-17T00:56:00.000Z,6.041397849462385
2023-07-17T00:57:02.000Z,6.090029325513216
2023-07-17T00:58:04.000Z,6.099755620723382
2023-07-17T00:59:06.000Z,6.099755620723382
2023-07-17T01:00:09.000Z,6.148387096774213
2023-07-17T01:01:11.000Z,6.148387096774213
2023-07-17T01:02:14.000Z,6.138660801564047
2023-07-17T01:03:16.000Z,6.148387096774213
2023-07-17T01:04:18.000Z,6.138660801564047
2023-07-17T01:05:20.000Z,6.148387096774213
2023-07-17T01:06:23.000Z,6.090029325513216
2023-07-17T01:07:25.000Z,6.090029325513216
2023-07-17T01:08:28.000Z,6.090029325513216
2023-07-17T01:09:30.000Z,6.099755620723382
2023-07-17T01:10:32.000Z,6.167839687194546
2023-07-17T01:11:34.000Z,6.070576735092883
2023-07-17T01:12:37.000Z,6.158113391984379
2023-07-17T01:13:39.000Z,6.128934506353881
2023-07-17T01:14:41.000Z,6.167839687194546
2023-07-17T01:15:44.000Z,6.1192082111437145
2023-07-17T01:16:46.000Z,6.109481915933548
2023-07-17T01:17:48.000Z,6.031671554252219
2023-07-17T01:18:51.000Z,6.041397849462385
2023-07-17T01:19:53.000Z,6.060850439882717
2023-07-17T01:20:55.000Z,6.099755620723382
2023-07-17T01:21:58.000Z,6.109481915933548
2023-07-17T01:23:00.000Z,6.099755620723382
2023-07-17T01:24:02.000Z,6.099755620723382
2023-07-17T01:25:05.000Z,6.090029325513216
2023-07-17T01:26:07.000Z,6.08030303030305
2023-07-17T01:27:09.000Z,6.148387096774213
2023-07-17T01:28:12.000Z,6.138660801564047
2023-07-17T01:29:14.000Z,6.012218963831886
2023-07-17T01:30:16.000Z,6.08030303030305
2023-07-17T01:31:18.000Z,6.148387096774213
2023-07-17T01:32:21.000Z,6.158113391984379
2023-07-17T01:33:23.000Z,6.158113391984379
2023-07-17T01:34:25.000Z,6.167839687194546
2023-07-17T01:35:28.000Z,6.167839687194546
2023-07-17T01:36:30.000Z,6.158113391984379
2023-07-17T01:37:32.000Z,6.109481915933548
2023-07-17T01:38:35.000Z,6.099755620723382
2023-07-17T01:39:37.000Z,6.177565982404712
2023-07-17T01:40:39.000Z,6.148387096774213
2023-07-17T01:41:41.000Z,6.138660801564047
2023-07-17T01:42:44.000Z,6.138660801564047
2023-07-17T01:43:46.000Z,6.1192082111437145
2023-07-17T01:44:48.000Z,6.148387096774213
2023-07-17T01:45:51.000Z,6.109481915933548
2023-07-17T01:46:53.000Z,5.973313782991221
2023-07-17T01:47:55.000Z,6.109481915933548
2023-07-17T01:48:57.000Z,6.109481915933548
2023-07-17T01:50:00.000Z,6.109481915933548
2023-07-17T01:51:02.000Z,6.099755620723382
2023-07-17T01:52:04.000Z,6.08030303030305
2023-07-17T01:53:07.000Z,6.08030303030305
2023-07-17T01:54:09.000Z,6.109481915933548
2023-07-17T01:55:12.000Z,6.138660801564047
2023-07-17T01:56:14.000Z,6.109481915933548
2023-07-17T01:57:16.000Z,6.060850439882717
2023-07-17T01:58:18.000Z,6.1192082111437145
2023-07-17T01:59:21.000Z,6.128934506353881
2023-07-17T02:00:23.000Z,6.148387096774213
2023-07-17T02:01:25.000Z,6.109481915933548
2023-07-17T02:02:28.000Z,6.109481915933548
2023-07-17T02:03:30.000Z,6.1192082111437145
2023-07-17T02:04:32.000Z,6.051124144672551
2023-07-17T02:05:34.000Z,6.041397849462385
2023-07-17T02:06:37.000Z,6.031671554252219
2023-07-17T02:07:39.000Z,6.1192082111437145
2023-07-17T02:08:41.000Z,6.08030303030305
2023-07-17T02:09:43.000Z,6.090029325513216
2023-07-17T02:10:46.000Z,6.070576735092883
2023-07-17T02:11:48.000Z,6.060850439882717
2023-07-17T02:12:50.000Z,6.060850439882717
2023-07-17T02:13:53.000Z,6.070576735092883
2023-07-17T02:14:55.000Z,6.051124144672551
2023-07-17T02:15:57.000Z,5.973313782991221
2023-07-17T02:17:00.000Z,5.9830400782013875
2023-07-17T02:18:02.000Z,6.012218963831886
2023-07-17T02:19:04.000Z,6.051124144672551
2023-07-17T02:20:07.000Z,6.041397849462385
2023-07-17T02:21:09.000Z,6.041397849462385
2023-07-17T02:22:11.000Z,6.00249266862172
2023-07-17T02:23:13.000Z,6.070576735092883
2023-07-17T02:24:16.000Z,6.08030303030305
2023-07-17T02:25:18.000Z,6.090029325513216
2023-07-17T02:26:20.000Z,6.070576735092883
2023-07-17T02:27:23.000Z,6.031671554252219
2023-07-17T02:28:25.000Z,6.090029325513216
2023-07-17T02:29:27.000Z,6.099755620723382
2023-07-17T02:30:30.000Z,6.109481915933548
2023-07-17T02:31:32.000Z,6.109481915933548
2023-07-17T02:32:34.000Z,6.1192082111437145
2023-07-17T02:33:36.000Z,6.031671554252219
2023-07-17T02:34:39.000Z,6.109481915933548
2023-07-17T02:35:41.000Z,6.109481915933548
2023-07-17T02:36:43.000Z,5.992766373411554
2023-07-17T02:37:46.000Z,6.00249266862172
2023-07-17T02:38:48.000Z,6.090029325513216
2023-07-17T02:39:50.000Z,6.051124144672551
2023-07-17T02:40:52.000Z,6.060850439882717
2023-07-17T02:41:55.000Z,6.051124144672551
2023-07-17T02:42:57.000Z,6.060850439882717
2023-07-17T02:43:59.000Z,6.051124144672551
2023-07-17T02:45:01.000Z,6.041397849462385
2023-07-17T02:46:04.000Z,5.973313782991221
2023-07-17T02:47:06.000Z,5.9830400782013875
2023-07-17T02:48:08.000Z,6.041397849462385
2023-07-17T02:49:11.000Z,6.060850439882717
2023-07-17T02:50:13.000Z,6.08030303030305
2023-07-17T02:51:15.000Z,6.012218963831886
2023-07-17T02:52:18.000Z,6.08030303030305
2023-07-17T02:53:20.000Z,6.070576735092883
2023-07-17T02:54:22.000Z,6.031671554252219
2023-07-17T02:55:24.000Z,6.090029325513216
2023-07-17T02:56:27.000Z,6.090029325513216
2023-07-17T02:57:29.000Z,6.031671554252219
2023-07-17T02:58:31.000Z,6.099755620723382
2023-07-17T02:59:33.000Z,6.070576735092883
2023-07-17T03:00:36.000Z,6.060850439882717
2023-07-17T03:01:38.000Z,6.031671554252219
2023-07-17T03:02:40.000Z,6.099755620723382
2023-07-17T03:03:43.000Z,6.099755620723382
2023-07-17T03:04:45.000Z,6.060850439882717
2023-07-17T03:05:47.000Z,6.070576735092883
2023-07-17T03:06:50.000Z,6.051124144672551
2023-07-17T03:07:52.000Z,6.070576735092883
2023-07-17T03:08:54.000Z,6.00249266862172
2023-07-17T03:09:57.000Z,6.060850439882717
2023-07-17T03:10:59.000Z,6.060850439882717
2023-07-17T03:12:01.000Z,6.051124144672551
2023-07-17T03:13:04.000Z,5.992766373411554
2023-07-17T03:14:06.000Z,5.992766373411554
2023-07-17T03:15:08.000Z,6.00249266862172
2023-07-17T03:16:11.000Z,6.051124144672551
2023-07-17T03:17:13.000Z,6.051124144672551
2023-07-17T03:18:15.000Z,6.090029325513216
2023-07-17T03:19:17.000Z,6.070576735092883
2023-07-17T03:20:20.000Z,6.090029325513216
2023-07-17T03:21:22.000Z,6.090029325513216
2023-07-17T03:22:24.000Z,6.099755620723382
2023-07-17T03:23:27.000Z,6.021945259042052
2023-07-17T03:24:29.000Z,6.060850439882717
2023-07-17T03:25:31.000Z,6.138660801564047
2023-07-17T03:26:33.000Z,6.031671554252219
2023-07-17T03:27:36.000Z,6.1192082111437145
2023-07-17T03:28:38.000Z,6.109481915933548
2023-07-17T03:29:40.000Z,6.1192082111437145
2023-07-17T03:30:42.000Z,6.1192082111437145
2023-07-17T03:31:45.000Z,6.060850439882717
2023-07-17T03:32:47.000Z,6.090029325513216
2023-07-17T03:33:50.000Z,6.099755620723382
2023-07-17T03:34:52.000Z,6.060850439882717
2023-07-17T03:35:54.000Z,6.051124144672551
2023-07-17T03:36:56.000Z,6.1192082111437145
2023-07-17T03:37:59.000Z,6.138660801564047
2023-07-17T03:39:01.000Z,6.109481915933548
2023-07-17T03:40:03.000Z,6.109481915933548
2023-07-17T03:41:06.000Z,6.070576735092883
2023-07-17T03:42:08.000Z,6.109481915933548
2023-07-17T03:43:10.000Z,6.041397849462385
2023-07-17T03:44:13.000Z,5.963587487781055
2023-07-17T03:45:15.000Z,6.109481915933548
2023-07-17T03:46:17.000Z,6.148387096774213
2023-07-17T03:47:19.000Z,6.167839687194546
2023-07-17T03:48:22.000Z,6.167839687194546
2023-07-17T03:49:24.000Z,6.158113391984379
2023-07-17T03:50:26.000Z,6.148387096774213
2023-07-17T03:51:29.000Z,6.148387096774213
2023-07-17T03:52:31.000Z,6.177565982404712
2023-07-17T03:53:33.000Z,6.177565982404712
2023-07-17T03:54:36.000Z,6.1192082111437145
2023-07-17T03:55:38.000Z,6.099755620723382
2023-07-17T03:56:40.000Z,6.158113391984379
2023-07-17T03:57:43.000Z,6.197018572825044
2023-07-17T03:58:45.000Z,6.216471163245377
2023-07-17T03:59:47.000Z,6.158113391984379
2023-07-17T04:00:50.000Z,6.158113391984379
2023-07-17T04:01:52.000Z,6.167839687194546
2023-07-17T04:02:54.000Z,6.158113391984379
2023-07-17T04:03:56.000Z,6.167839687194546
2023-07-17T04:04:59.000Z,6.128934506353881
2023-07-17T04:06:01.000Z,6.08030303030305
2023-07-17T04:07:03.000Z,6.128934506353881
2023-07-17T04:08:06.000Z,6.148387096774213
2023-07-17T04:09:08.000Z,6.177565982404712
2023-07-17T04:10:11.000Z,6.158113391984379
2023-07-17T04:11:13.000Z,6.187292277614878
2023-07-17T04:12:15.000Z,6.158113391984379
2023-07-17T04:13:17.000Z,6.1192082111437145
2023-07-17T04:14:20.000Z,6.197018572825044
2023-07-17T04:15:22.000Z,6.138660801564047
2023-07-17T04:16:24.000Z,6.177565982404712
2023-07-17T04:17:26.000Z,6.20674486803521
2023-07-17T04:18:29.000Z,6.216471163245377
2023-07-17T04:19:31.000Z,6.216471163245377
2023-07-17T04:20:33.000Z,6.245650048875875
2023-07-17T04:21:36.000Z,6.216471163245377
2023-07-17T04:22:38.000Z,6.235923753665709
2023-07-17T04:23:40.000Z,6.235923753665709
2023-07-17T04:24:42.000Z,6.177565982404712
2023-07-17T04:25:45.000Z,6.177565982404712
2023-07-17T04:26:47.000Z,6.245650048875875
2023-07-17T04:27:49.000Z,6.20674486803521
2023-07-17T04:28:52.000Z,6.197018572825044
2023-07-17T04:29:54.000Z,6.187292277614878
2023-07-17T04:30:56.000Z,6.099755620723382
2023-07-17T04:31:59.000Z,6.1192082111437145
2023-07-17T04:33:01.000Z,6.128934506353881
2023-07-17T04:34:03.000Z,6.197018572825044
2023-07-17T04:35:05.000Z,6.216471163245377
2023-07-17T04:36:08.000Z,6.226197458455543
2023-07-17T04:37:10.000Z,6.226197458455543
2023-07-17T04:38:12.000Z,6.245650048875875
2023-07-17T04:39:15.000Z,6.226197458455543
2023-07-17T04:40:17.000Z,6.2553763440860415
2023-07-17T04:41:19.000Z,6.187292277614878
2023-07-17T04:42:21.000Z,6.158113391984379
2023-07-17T04:43:24.000Z,6.294281524926706
2023-07-17T04:44:26.000Z,6.28455522971654
2023-07-17T04:45:28.000Z,6.3040078201368726
2023-07-17T04:46:31.000Z,6.313734115347039
2023-07-17T04:47:33.000Z,6.313734115347039
2023-07-17T04:48:35.000Z,6.216471163245377
2023-07-17T04:49:38.000Z,6.313734115347039
2023-07-17T04:50:40.000Z,6.323460410557205
2023-07-17T04:51:42.000Z,6.245650048875875
2023-07-17T04:52:44.000Z,6.323460410557205
2023-07-17T04:53:47.000Z,6.333186705767371
2023-07-17T04:54:49.000Z,6.226197458455543
2023-07-17T04:55:51.000Z,6.274828934506374
2023-07-17T04:56:54.000Z,6.265102639296208
2023-07-17T04:57:56.000Z,6.245650048875875
2023-07-17T04:58:58.000Z,6.197018572825044
2023-07-17T05:00:01.000Z,6.158113391984379
2023-07-17T05:01:03.000Z,6.20674486803521
2023-07-17T05:02:05.000Z,6.2553763440860415
2023-07-17T05:03:08.000Z,6.226197458455543
2023-07-17T05:04:10.000Z,6.265102639296208
2023-07-17T05:05:12.000Z,6.28455522971654
2023-07-17T05:06:14.000Z,6.167839687194546
2023-07-17T05:07:17.000Z,6.28455522971654
2023-07-17T05:08:19.000Z,6.2553763440860415
2023-07-17T05:09:21.000Z,6.245650048875875
2023-07-17T05:10:24.000Z,6.352639296187704
2023-07-17T05:11:26.000Z,6.323460410557205
2023-07-17T05:12:28.000Z,6.323460410557205
2023-07-17T05:13:31.000Z,6.323460410557205
2023-07-17T05:14:33.000Z,6.342913000977537
2023-07-17T05:15:35.000Z,6.342913000977537
2023-07-17T05:16:37.000Z,6.3915444770283685
2023-07-17T05:17:40.000Z,6.342913000977537
2023-07-17T05:18:42.000Z,6.274828934506374
2023-07-17T05:19:44.000Z,6.274828934506374
2023-07-17T05:20:47.000Z,6.3040078201368726
2023-07-17T05:21:49.000Z,6.323460410557205
2023-07-17T05:22:51.000Z,6.294281524926706
2023-07-17T05:23:54.000Z,6.216471163245377
2023-07-17T05:24:56.000Z,6.333186705767371
2023-07-17T05:25:58.000Z,6.323460410557205
2023-07-17T05:27:01.000Z,6.352639296187704
2023-07-17T05:28:03.000Z,6.333186705767371
2023-07-17T05:29:05.000Z,6.342913000977537
2023-07-17T05:30:08.000Z,6.333186705767371
2023-07-17T05:31:10.000Z,6.323460410557205
2023-07-17T05:32:12.000Z,6.3040078201368726
2023-07-17T05:33:15.000Z,6.216471163245377
2023-07-17T05:34:17.000Z,6.235923753665709
2023-07-17T05:35:19.000Z,6.313734115347039
2023-07-17T05:36:22.000Z,6.342913000977537
2023-07-17T05:37:24.000Z,6.381818181818202
2023-07-17T05:38:26.000Z,6.372091886608036
2023-07-17T05:39:29.000Z,6.36236559139787
2023-07-17T05:40:31.000Z,6.36236559139787
2023-07-17T05:41:33.000Z,6.245650048875875
2023-07-17T05:42:36.000Z,6.333186705767371
2023-07-17T05:43:38.000Z,6.265102639296208
2023-07-17T05:44:40.000Z,6.342913000977537
2023-07-17T05:45:42.000Z,6.352639296187704
2023-07-17T05:46:45.000Z,6.342913000977537
2023-07-17T05:47:47.000Z,6.352639296187704
2023-07-17T05:48:49.000Z,6.342913000977537
2023-07-17T05:49:52.000Z,6.333186705767371
2023-07-17T05:50:54.000Z,6.2553763440860415
2023-07-17T05:51:56.000Z,6.187292277614878
2023-07-17T05:52:58.000Z,6.245650048875875
2023-07-17T05:54:01.000Z,6.226197458455543
2023-07-17T05:55:03.000Z,6.226197458455543
2023-07-17T05:56:06.000Z,6.245650048875875
2023-07-17T05:57:08.000Z,6.235923753665709
2023-07-17T05:58:10.000Z,6.20674486803521
2023-07-17T05:59:12.000Z,6.1192082111437145
2023-07-17T06:00:15.000Z,6.197018572825044
2023-07-17T06:01:17.000Z,6.197018572825044
2023-07-17T06:02:19.000Z,6.187292277614878
2023-07-17T06:03:22.000Z,6.128934506353881
2023-07-17T06:04:24.000Z,6.177565982404712
2023-07-17T06:05:26.000Z,6.20674486803521
2023-07-17T06:06:29.000Z,6.235923753665709
2023-07-17T06:07:31.000Z,6.20674486803521
2023-07-17T06:08:33.000Z,6.20674486803521
2023-07-17T06:09:36.000Z,6.187292277614878
2023-07-17T06:10:38.000Z,6.138660801564047
2023-07-17T06:11:40.000Z,6.216471163245377
2023-07-17T06:12:42.000Z,6.216471163245377
2023-07-17T06:13:45.000Z,6.226197458455543
2023-07-17T06:14:47.000Z,6.226197458455543
2023-07-17T06:15:49.000Z,6.245650048875875
2023-07-17T06:16:52.000Z,6.167839687194546
2023-07-17T06:17:54.000Z,6.090029325513216
2023-07-17T06:18:56.000Z,6.167839687194546
2023-07-17T06:19:58.000Z,6.158113391984379
2023-07-17T06:21:01.000Z,6.167839687194546
2023-07-17T06:22:03.000Z,6.167839687194546
2023-07-17T06:23:05.000Z,6.158113391984379
2023-07-17T06:24:08.000Z,6.158113391984379
2023-07-17T06:25:10.000Z,6.148387096774213
2023-07-17T06:26:12.000Z,6.138660801564047
2023-07-17T06:27:15.000Z,6.070576735092883
2023-07-17T06:28:17.000Z,5.992766373411554
2023-07-17T06:29:19.000Z,6.08030303030305
2023-07-17T06:30:22.000Z,6.128934506353881
2023-07-17T06:31:24.000Z,6.158113391984379
2023-07-17T06:32:26.000Z,6.148387096774213
2023-07-17T06:33:29.000Z,6.158113391984379
2023-07-17T06:34:31.000Z,6.158113391984379
2023-07-17T06:35:33.000Z,6.167839687194546
2023-07-17T06:36:35.000Z,6.167839687194546
2023-07-17T06:37:38.000Z,6.167839687194546
2023-07-17T06:38:40.000Z,6.099755620723382
2023-07-17T06:39:42.000Z,6.109481915933548
2023-07-17T06:40:45.000Z,6.177565982404712
2023-07-17T06:41:47.000Z,6.197018572825044
2023-07-17T06:42:49.000Z,6.197018572825044
2023-07-17T06:43:52.000Z,6.197018572825044
2023-07-17T06:44:54.000Z,6.187292277614878
2023-07-17T06:45:56.000Z,6.070576735092883
2023-07-17T06:46:59.000Z,6.148387096774213
2023-07-17T06:48:01.000Z,6.148387096774213
2023-07-17T06:49:03.000Z,6.128934506353881
2023-07-17T06:50:06.000Z,6.138660801564047
2023-07-17T06:51:08.000Z,6.138660801564047
2023-07-17T06:52:10.000Z,6.109481915933548
2023-07-17T06:53:13.000Z,6.1192082111437145
2023-07-17T06:54:15.000Z,6.099755620723382
2023-07-17T06:55:17.000Z,6.041397849462385
2023-07-17T06:56:20.000Z,6.051124144672551
2023-07-17T06:57:22.000Z,6.099755620723382
2023-07-17T06:58:24.000Z,6.090029325513216
2023-07-17T06:59:26.000Z,6.128934506353881
2023-07-17T07:00:29.000Z,6.1192082111437145
2023-07-17T07:01:31.000Z,6.128934506353881
2023-07-17T07:02:33.000Z,6.128934506353881
2023-07-17T07:03:36.000Z,6.128934506353881
2023-07-17T07:04:38.000Z,6.128934506353881
2023-07-17T07:05:40.000Z,6.138660801564047
2023-07-17T07:06:43.000Z,6.138660801564047
2023-07-17T07:07:45.000Z,6.090029325513216
2023-07-17T07:08:47.000Z,6.08030303030305
2023-07-17T07:09:50.000Z,6.090029325513216
2023-07-17T07:10:52.000Z,6.08030303030305
2023-07-17T07:11:54.000Z,6.08030303030305
2023-07-17T07:12:57.000Z,6.099755620723382
2023-07-17T07:13:59.000Z,6.099755620723382
2023-07-17T07:15:01.000Z,6.099755620723382
2023-07-17T07:16:04.000Z,6.099755620723382
2023-07-17T07:17:06.000Z,6.099755620723382
2023-07-17T07:18:09.000Z,6.109481915933548
2023-07-17T07:19:11.000Z,6.099755620723382
2023-07-17T07:20:13.000Z,6.090029325513216
2023-07-17T07:21:16.000Z,6.08030303030305
2023-07-17T07:22:18.000Z,6.070576735092883
2023-07-17T07:23:20.000Z,6.070576735092883
2023-07-17T07:24:23.000Z,5.992766373411554
2023-07-17T07:25:25.000Z,6.021945259042052
2023-07-17T07:26:27.000Z,6.109481915933548
2023-07-17T07:27:29.000Z,6.099755620723382
2023-07-17T07:28:32.000Z,6.099755620723382
2023-07-17T07:29:34.000Z,6.099755620723382
2023-07-17T07:30:36.000Z,6.109481915933548
2023-07-17T07:31:39.000Z,6.109481915933548
2023-07-17T07:32:41.000Z,6.012218963831886
2023-07-17T07:33:43.000Z,6.090029325513216
2023-07-17T07:34:46.000Z,6.090029325513216
2023-07-17T07:35:48.000Z,6.099755620723382
2023-07-17T07:36:50.000Z,6.099755620723382
2023-07-17T07:37:52.000Z,6.090029325513216
2023-07-17T07:38:55.000Z,6.1192082111437145
2023-07-17T07:39:57.000Z,6.138660801564047
2023-07-17T07:41:00.000Z,6.070576735092883
2023-07-17T07:42:02.000Z,6.090029325513216
2023-07-17T07:43:04.000Z,6.08030303030305
2023-07-17T07:44:06.000Z,6.012218963831886
2023-07-17T07:45:09.000Z,6.012218963831886
2023-07-17T07:46:11.000Z,6.012218963831886
2023-07-17T07:47:13.000Z,6.070576735092883
2023-07-17T07:48:16.000Z,6.060850439882717
2023-07-17T07:49:18.000Z,6.060850439882717
2023-07-17T07:50:20.000Z,5.9830400782013875
2023-07-17T07:51:22.000Z,6.060850439882717
2023-07-17T07:52:25.000Z,6.051124144672551
2023-07-17T07:53:27.000Z,6.070576735092883
2023-07-17T07:54:29.000Z,6.099755620723382
2023-07-17T07:55:32.000Z,6.051124144672551
2023-07-17T07:56:34.000Z,6.060850439882717
2023-07-17T07:57:36.000Z,6.051124144672551
2023-07-17T07:58:39.000Z,6.08030303030305
2023-07-17T07:59:41.000Z,6.128934506353881
2023-07-17T08:00:43.000Z,6.1192082111437145
2023-07-17T08:01:45.000Z,6.158113391984379
2023-07-17T08:02:48.000Z,6.158113391984379
2023-07-17T08:03:50.000Z,6.158113391984379
2023-07-17T08:04:52.000Z,6.187292277614878
2023-07-17T08:05:55.000Z,6.177565982404712
2023-07-17T08:06:57.000Z,6.20674486803521
2023-07-17T08:07:59.000Z,6.070576735092883
2023-07-17T08:09:02.000Z,6.148387096774213
2023-07-17T08:10:04.000Z,6.128934506353881
2023-07-17T08:11:06.000Z,6.138660801564047
2023-07-17T08:12:09.000Z,6.090029325513216
2023-07-17T08:13:11.000Z,6.099755620723382
2023-07-17T08:14:13.000Z,6.158113391984379
2023-07-17T08:15:16.000Z,6.148387096774213
2023-07-17T08:16:18.000Z,6.148387096774213
2023-07-17T08:17:20.000Z,6.138660801564047
2023-07-17T08:18:22.000Z,6.128934506353881
2023-07-17T08:19:25.000Z,6.1192082111437145
2023-07-17T08:20:27.000Z,6.099755620723382
2023-07-17T08:21:29.000Z,6.1192082111437145
2023-07-17T08:22:32.000Z,6.177565982404712
2023-07-17T08:23:34.000Z,6.177565982404712
2023-07-17T08:24:36.000Z,6.197018572825044
2023-07-17T08:25:39.000Z,6.031671554252219
2023-07-17T08:26:41.000Z,6.138660801564047
2023-07-17T08:27:43.000Z,6.128934506353881
2023-07-17T08:28:46.000Z,6.197018572825044
2023-07-17T08:29:48.000Z,6.245650048875875
2023-07-17T08:30:50.000Z,6.226197458455543
2023-07-17T08:31:52.000Z,6.2553763440860415
2023-07-17T08:32:55.000Z,6.2553763440860415
2023-07-17T08:33:57.000Z,6.2553763440860415
2023-07-17T08:34:59.000Z,6.245650048875875
2023-07-17T08:36:02.000Z,6.216471163245377
2023-07-17T08:37:04.000Z,6.099755620723382
2023-07-17T08:38:06.000Z,6.128934506353881
2023-07-17T08:39:08.000Z,6.128934506353881
2023-07-17T08:40:11.000Z,6.158113391984379
2023-07-17T08:41:13.000Z,6.20674486803521
2023-07-17T08:42:15.000Z,6.245650048875875
2023-07-17T08:43:18.000Z,6.216471163245377
2023-07-17T08:44:20.000Z,6.226197458455543
2023-07-17T08:45:22.000Z,6.197018572825044
2023-07-17T08:46:24.000Z,6.187292277614878
2023-07-17T08:47:27.000Z,6.158113391984379
2023-07-17T08:48:29.000Z,6.138660801564047
2023-07-17T08:49:31.000Z,6.177565982404712
2023-07-17T08:50:34.000Z,6.1192082111437145
2023-07-17T08:51:36.000Z,6.128934506353881
2023-07-17T08:52:38.000Z,6.109481915933548
2023-07-17T08:53:41.000Z,6.177565982404712
2023-07-17T08:54:43.000Z,6.109481915933548
2023-07-17T08:55:45.000Z,6.187292277614878
2023-07-17T08:56:47.000Z,6.177565982404712
2023-07-17T08:57:50.000Z,6.187292277614878
2023-07-17T08:58:52.000Z,6.187292277614878
2023-07-17T08:59:54.000Z,6.167839687194546
2023-07-17T09:00:57.000Z,6.177565982404712
2023-07-17T09:01:59.000Z,6.177565982404712
2023-07-17T09:03:01.000Z,6.128934506353881
2023-07-17T09:04:03.000Z,6.070576735092883
2023-07-17T09:05:06.000Z,6.148387096774213
2023-07-17T09:06:08.000Z,6.138660801564047
2023-07-17T09:07:10.000Z,6.138660801564047
2023-07-17T09:08:13.000Z,6.167839687194546
2023-07-17T09:09:15.000Z,6.148387096774213
2023-07-17T09:10:17.000Z,6.128934506353881
2023-07-17T09:11:19.000Z,6.128934506353881
2023-07-17T09:12:22.000Z,6.041397849462385
2023-07-17T09:13:24.000Z,6.099755620723382
2023-07-17T09:14:26.000Z,6.099755620723382
2023-07-17T09:15:29.000Z,6.090029325513216
2023-07-17T09:16:31.000Z,6.099755620723382
2023-07-17T09:17:33.000Z,6.060850439882717
2023-07-17T09:18:35.000Z,6.041397849462385
2023-07-17T09:19:38.000Z,6.08030303030305
2023-07-17T09:20:40.000Z,6.060850439882717
2023-07-17T09:21:42.000Z,6.08030303030305
2023-07-17T09:22:45.000Z,6.090029325513216
2023-07-17T09:23:47.000Z,6.060850439882717
2023-07-17T09:24:49.000Z,6.177565982404712
2023-07-17T09:25:52.000Z,6.197018572825044
2023-07-17T09:26:54.000Z,6.197018572825044
2023-07-17T09:27:56.000Z,6.216471163245377
2023-07-17T09:28:58.000Z,6.245650048875875
2023-07-17T09:30:01.000Z,6.265102639296208
2023-07-17T09:31:03.000Z,6.265102639296208
2023-07-17T09:32:05.000Z,6.216471163245377
2023-07-17T09:33:08.000Z,6.216471163245377
2023-07-17T09:34:10.000Z,6.138660801564047
2023-07-17T09:35:12.000Z,6.20674486803521
2023-07-17T09:36:14.000Z,6.216471163245377
2023-07-17T09:37:17.000Z,6.226197458455543
2023-07-17T09:38:19.000Z,6.187292277614878